首页
METAR-TAF:

METAR-TAF

机场 :

Piedras Negras, 墨西哥

纬度: 28-42N, 经度: 100-31W, 海拔: 250米

当前天气观测

该预报发布于41分钟前的15:40 UTC
静风
温度 7°C
湿度 76%
气压 1026 hPa
能見度: 16.1公里
天空无云

METAR: MMPG 121540Z 00000KT 10SM SKC 07/03 A3030 RMK

时间: 10:21 (16:21 UTC)

预报

该预报发布于10小时和27分钟前的05:54 UTC
预报有效从12日的 06点(UTC)到 13日的 06点(UTC)
风速4节,风向东转东南
能見度: 10公里
天空无云
从 12日的 1800点(UTC)
风速8节,风向南转西南
能見度: 10公里
散云层高于20000英尺
成为
从 13日的 03点(UTC)到 13日的 05点(UTC)
风速5节,风向南转南东

TAF: MMPG 120554Z 1206/1306 12004KT P6SM SKC FM121800 20008KT P6SM SCT200 BECMG 1303/1305 16005KT

超过4000个机场的气象观测和天气预报(METAR&TAF报告)。

可查询的气象台以黄色和红色小点在地图上表示。

将鼠标移到小点上方,可查看气象台名称。

然后点击查看天气观测和预报。

如需切换地图:点击带黑十字的绿色按钮放大地图;点击带横线的绿色按钮缩小地图;或者点击绿色箭头查看邻近地区的地图。


METAR-TAF: